createdAt,value
2023-01-20T00:00:28.020Z,0.60
2023-01-20T00:02:00.719Z,0.60
2023-01-20T00:03:33.467Z,0.60
2023-01-20T00:05:07.502Z,0.60
2023-01-20T00:06:40.231Z,0.60
2023-01-20T00:08:12.918Z,0.60
2023-01-20T00:09:45.815Z,0.60
2023-01-20T00:11:20.951Z,0.60
2023-01-20T00:12:53.627Z,0.50
2023-01-20T00:14:27.666Z,0.50
2023-01-20T00:16:02.767Z,0.50
2023-01-20T00:17:35.502Z,0.50
2023-01-20T00:19:08.523Z,0.50
2023-01-20T00:20:41.341Z,0.50
2023-01-20T00:22:14.057Z,0.40
2023-01-20T00:23:47.830Z,0.40
2023-01-20T00:25:20.526Z,0.40
2023-01-20T00:26:54.584Z,0.40
2023-01-20T00:28:27.286Z,0.50
2023-01-20T00:29:59.956Z,0.50
2023-01-20T00:31:34.527Z,0.50
2023-01-20T00:33:07.294Z,0.50
2023-01-20T00:34:40.059Z,0.40
2023-01-20T00:36:14.431Z,0.50
2023-01-20T00:37:46.136Z,0.40
2023-01-20T00:39:18.817Z,0.40
2023-01-20T00:40:54.474Z,0.40
2023-01-20T00:42:28.540Z,0.40
2023-01-20T00:44:01.465Z,0.40
2023-01-20T00:45:34.165Z,0.40
2023-01-20T00:47:07.097Z,0.40
2023-01-20T00:48:40.165Z,0.40
2023-01-20T00:50:12.879Z,0.40
2023-01-20T00:51:44.614Z,0.30
2023-01-20T00:53:17.383Z,0.30
2023-01-20T00:54:50.079Z,0.30
2023-01-20T00:56:21.798Z,0.30
2023-01-20T00:57:55.814Z,0.30
2023-01-20T00:59:28.510Z,0.30
2023-01-20T01:01:00.945Z,0.30
2023-01-20T01:02:38.713Z,0.30
2023-01-20T01:04:10.503Z,0.30
2023-01-20T01:05:43.413Z,0.30
2023-01-20T01:07:16.158Z,0.30
2023-01-20T01:08:48.844Z,0.30
2023-01-20T01:10:20.577Z,0.30
2023-01-20T01:11:53.263Z,0.30
2023-01-20T01:13:26.330Z,0.30
2023-01-20T01:14:59.036Z,0.30
2023-01-20T01:16:31.774Z,0.30
2023-01-20T01:18:03.987Z,0.30
2023-01-20T01:19:36.671Z,0.30
2023-01-20T01:21:09.103Z,0.20
2023-01-20T01:22:41.926Z,0.20
2023-01-20T01:24:14.647Z,0.20
2023-01-20T01:25:47.348Z,0.20
2023-01-20T01:27:20.035Z,0.20
2023-01-20T01:28:54.351Z,0.20
2023-01-20T01:30:27.136Z,0.20
2023-01-20T01:31:59.836Z,0.20
2023-01-20T01:33:31.823Z,0.20
2023-01-20T01:35:04.771Z,0.10
2023-01-20T01:36:37.469Z,0.10
2023-01-20T01:38:10.184Z,0.10
2023-01-20T01:39:42.919Z,0.10
2023-01-20T01:41:17.919Z,0.10
2023-01-20T01:42:50.659Z,0.10
2023-01-20T01:44:28.042Z,0.10
2023-01-20T01:46:01.339Z,0.00
2023-01-20T01:47:33.198Z,0.10
2023-01-20T01:49:09.625Z,0.10
2023-01-20T01:50:48.191Z,0.00
2023-01-20T01:52:21.739Z,0.00
2023-01-20T01:53:57.607Z,0.00
2023-01-20T01:55:34.095Z,0.00
2023-01-20T01:57:08.319Z,0.00
2023-01-20T01:58:46.021Z,0.00
2023-01-20T02:00:20.915Z,-0.10
2023-01-20T02:01:54.862Z,0.00
2023-01-20T02:03:31.405Z,0.00
2023-01-20T02:05:04.411Z,0.00
2023-01-20T02:06:40.631Z,0.00
2023-01-20T02:08:13.293Z,0.00
2023-01-20T02:09:46.439Z,0.00
2023-01-20T02:11:19.098Z,0.00
2023-01-20T02:12:52.708Z,-0.10
2023-01-20T02:14:30.558Z,-0.10
2023-01-20T02:16:13.940Z,-0.10
2023-01-20T02:17:56.123Z,-0.10
2023-01-20T02:19:55.904Z,-0.10
2023-01-20T02:21:50.576Z,-0.10
2023-01-20T02:23:42.062Z,-0.10
2023-01-20T02:25:38.685Z,-0.10
2023-01-20T02:27:15.436Z,-0.10
2023-01-20T02:29:20.371Z,-0.10
2023-01-20T02:31:37.913Z,-0.10
2023-01-20T02:33:16.381Z,-0.10
2023-01-20T02:34:58.639Z,-0.20
2023-01-20T02:36:39.158Z,-0.20
2023-01-20T02:38:17.733Z,-0.20
2023-01-20T02:39:57.957Z,-0.20
2023-01-20T02:41:39.072Z,-0.20
2023-01-20T02:43:18.753Z,-0.20
2023-01-20T02:44:57.850Z,-0.20
2023-01-20T02:46:35.158Z,-0.20
2023-01-20T02:48:16.260Z,-0.20
2023-01-20T02:49:55.488Z,-0.20
2023-01-20T02:51:31.775Z,-0.10
2023-01-20T02:53:06.731Z,-0.20
2023-01-20T02:54:43.001Z,-0.20
2023-01-20T02:56:17.723Z,-0.30
2023-01-20T02:57:56.698Z,-0.20
2023-01-20T02:59:34.087Z,-0.20
2023-01-20T03:01:12.576Z,-0.20
2023-01-20T03:02:48.157Z,-0.20
2023-01-20T03:04:26.035Z,-0.20
2023-01-20T03:06:00.199Z,-0.20
2023-01-20T03:07:35.236Z,-0.20
2023-01-20T03:09:11.121Z,-0.20
2023-01-20T03:10:46.287Z,-0.30
2023-01-20T03:12:22.400Z,-0.20
2023-01-20T03:14:00.304Z,-0.20
2023-01-20T03:15:38.996Z,-0.20
2023-01-20T03:17:11.863Z,-0.20
2023-01-20T03:18:45.553Z,-0.30
2023-01-20T03:20:19.792Z,-0.30
2023-01-20T03:21:53.124Z,-0.30
2023-01-20T03:23:27.475Z,-0.30
2023-01-20T03:24:59.725Z,-0.30
2023-01-20T03:26:32.450Z,-0.30
2023-01-20T03:28:05.642Z,-0.40
2023-01-20T03:29:38.504Z,-0.30
2023-01-20T03:31:16.374Z,-0.30
2023-01-20T03:32:51.004Z,-0.40
2023-01-20T03:34:26.273Z,-0.40
2023-01-20T03:36:00.383Z,-0.40
2023-01-20T03:37:33.184Z,-0.30
2023-01-20T03:39:06.595Z,-0.40
2023-01-20T03:40:46.763Z,-0.40
2023-01-20T03:42:27.980Z,-0.30
2023-01-20T03:44:10.401Z,-0.40
2023-01-20T03:45:52.646Z,-0.30
2023-01-20T03:47:33.506Z,-0.30
2023-01-20T03:49:16.274Z,-0.30
2023-01-20T03:50:55.433Z,-0.30
2023-01-20T03:52:47.569Z,-0.30
2023-01-20T03:54:27.090Z,-0.30
2023-01-20T03:56:05.385Z,-0.40
2023-01-20T03:57:42.614Z,-0.40
2023-01-20T03:59:18.868Z,-0.40
2023-01-20T04:00:52.932Z,-0.40
2023-01-20T04:02:28.872Z,-0.40
2023-01-20T04:04:04.769Z,-0.40
2023-01-20T04:05:39.578Z,-0.40
2023-01-20T04:07:16.055Z,-0.40
2023-01-20T04:08:57.011Z,-0.40
2023-01-20T04:10:32.086Z,-0.40
2023-01-20T04:12:05.137Z,-0.40
2023-01-20T04:13:38.299Z,-0.40
2023-01-20T04:15:10.836Z,-0.40
2023-01-20T04:16:44.464Z,-0.40
2023-01-20T04:18:19.946Z,-0.40
2023-01-20T04:19:52.660Z,-0.40
2023-01-20T04:21:30.522Z,-0.30
2023-01-20T04:23:03.937Z,-0.40
2023-01-20T04:24:42.689Z,-0.40
2023-01-20T04:26:15.397Z,-0.40
2023-01-20T04:27:48.117Z,-0.30
2023-01-20T04:29:20.832Z,-0.30
2023-01-20T04:30:53.919Z,-0.30
2023-01-20T04:32:26.688Z,-0.30
2023-01-20T04:33:59.427Z,-0.30
2023-01-20T04:35:32.127Z,-0.30
2023-01-20T04:37:04.868Z,-0.30
2023-01-20T04:38:37.602Z,-0.40
2023-01-20T04:40:12.993Z,-0.40
2023-01-20T04:41:45.721Z,-0.30
2023-01-20T04:43:18.450Z,-0.30
2023-01-20T04:44:51.156Z,-0.40
2023-01-20T04:46:23.881Z,-0.30
2023-01-20T04:47:55.604Z,-0.30
2023-01-20T04:49:28.748Z,-0.20
2023-01-20T04:51:05.264Z,-0.30
2023-01-20T04:52:38.048Z,-0.30
2023-01-20T04:54:12.161Z,-0.30
2023-01-20T04:55:45.784Z,-0.30
2023-01-20T04:57:18.480Z,-0.20
2023-01-20T04:58:51.179Z,-0.20
2023-01-20T05:00:24.074Z,-0.30
2023-01-20T05:01:56.826Z,-0.20
2023-01-20T05:03:29.599Z,-0.30
2023-01-20T05:05:02.521Z,-0.20
2023-01-20T05:06:35.402Z,-0.20
2023-01-20T05:08:08.279Z,-0.20
2023-01-20T05:09:40.973Z,-0.30
2023-01-20T05:11:15.073Z,-0.30
2023-01-20T05:12:48.163Z,-0.20
2023-01-20T05:14:19.911Z,-0.20
2023-01-20T05:15:52.683Z,-0.20
2023-01-20T05:17:25.425Z,-0.20
2023-01-20T05:18:58.318Z,-0.20
2023-01-20T05:20:31.086Z,-0.20
2023-01-20T05:22:03.816Z,-0.20
2023-01-20T05:23:36.740Z,-0.20
2023-01-20T05:25:10.385Z,-0.20
2023-01-20T05:26:44.466Z,-0.20
2023-01-20T05:28:17.217Z,-0.20
2023-01-20T05:29:49.917Z,-0.10
2023-01-20T05:31:22.691Z,-0.10
2023-01-20T05:32:55.555Z,-0.10
2023-01-20T05:34:28.247Z,-0.20
2023-01-20T05:36:00.913Z,-0.10
2023-01-20T05:37:33.604Z,-0.10
2023-01-20T05:39:06.310Z,-0.10
2023-01-20T05:40:38.997Z,-0.10
2023-01-20T05:42:13.032Z,-0.10
2023-01-20T05:43:45.741Z,-0.10
2023-01-20T05:45:17.725Z,-0.10
2023-01-20T05:46:50.475Z,-0.10
2023-01-20T05:48:23.195Z,-0.10
2023-01-20T05:49:55.901Z,-0.10
2023-01-20T05:51:28.651Z,-0.10
2023-01-20T05:53:01.356Z,-0.10
2023-01-20T05:54:34.045Z,-0.10
2023-01-20T05:56:07.387Z,-0.10
2023-01-20T05:57:41.481Z,-0.10
2023-01-20T05:59:14.201Z,-0.10
2023-01-20T06:00:46.879Z,-0.10
2023-01-20T06:02:20.000Z,-0.10
2023-01-20T06:03:52.775Z,-0.10
2023-01-20T06:05:25.493Z,-0.10
2023-01-20T06:06:59.041Z,-0.10
2023-01-20T06:08:31.902Z,-0.10
2023-01-20T06:10:04.906Z,-0.10
2023-01-20T06:11:37.661Z,-0.10
2023-01-20T06:13:11.655Z,-0.10
2023-01-20T06:14:44.349Z,-0.10
2023-01-20T06:16:18.162Z,-0.20
2023-01-20T06:17:51.362Z,-0.10
2023-01-20T06:19:24.101Z,-0.10
2023-01-20T06:20:58.558Z,-0.10
2023-01-20T06:22:31.282Z,-0.20
2023-01-20T06:24:04.074Z,-0.20
2023-01-20T06:25:36.804Z,-0.10
2023-01-20T06:27:12.257Z,-0.20
2023-01-20T06:28:47.603Z,-0.10
2023-01-20T06:30:20.602Z,-0.10
2023-01-20T06:31:53.367Z,-0.10
2023-01-20T06:33:26.092Z,-0.10
2023-01-20T06:34:58.825Z,-0.20
2023-01-20T06:36:31.524Z,-0.20
2023-01-20T06:38:04.482Z,-0.20
2023-01-20T06:39:37.560Z,-0.20
2023-01-20T06:41:11.357Z,-0.20
2023-01-20T06:42:44.307Z,-0.10
2023-01-20T06:44:18.333Z,-0.20
2023-01-20T06:45:51.118Z,-0.10
2023-01-20T06:47:23.937Z,-0.10
2023-01-20T06:49:00.488Z,-0.10
2023-01-20T06:50:33.453Z,-0.10
2023-01-20T06:52:06.563Z,-0.10
2023-01-20T06:53:39.541Z,-0.10
2023-01-20T06:55:12.462Z,0.00
2023-01-20T06:56:45.673Z,-0.10
2023-01-20T06:58:18.347Z,0.00
2023-01-20T06:59:52.365Z,0.00
2023-01-20T07:01:28.354Z,0.00
2023-01-20T07:03:01.275Z,0.00
2023-01-20T07:04:33.958Z,0.10
2023-01-20T07:06:14.787Z,0.10
2023-01-20T07:07:47.659Z,0.10
2023-01-20T07:09:20.353Z,0.10
2023-01-20T07:10:53.041Z,0.10
2023-01-20T07:12:25.805Z,0.10
2023-01-20T07:13:59.059Z,0.10
2023-01-20T07:15:33.116Z,0.10
2023-01-20T07:17:09.506Z,0.10
2023-01-20T07:18:42.450Z,0.10
2023-01-20T07:20:15.284Z,0.20
2023-01-20T07:21:47.960Z,0.10
2023-01-20T07:23:20.653Z,0.20
2023-01-20T07:24:53.353Z,0.20
2023-01-20T07:26:26.459Z,0.20
2023-01-20T07:27:59.207Z,0.20
2023-01-20T07:29:31.922Z,0.20
2023-01-20T07:31:07.529Z,0.10
2023-01-20T07:32:40.235Z,0.20
2023-01-20T07:34:12.950Z,0.20
2023-01-20T07:35:45.666Z,0.20
2023-01-20T07:37:18.468Z,0.20
2023-01-20T07:38:51.619Z,0.20
2023-01-20T07:40:24.337Z,0.20
2023-01-20T07:41:57.040Z,0.20
2023-01-20T07:43:30.259Z,0.20
2023-01-20T07:45:02.935Z,0.30
2023-01-20T07:46:37.006Z,0.30
2023-01-20T07:48:09.734Z,0.30
2023-01-20T07:49:42.418Z,0.30
2023-01-20T07:51:16.573Z,0.30
2023-01-20T07:52:49.267Z,0.30
2023-01-20T07:54:22.040Z,0.40
2023-01-20T07:55:54.782Z,0.40
2023-01-20T07:57:30.007Z,0.30
2023-01-20T07:59:02.753Z,0.30
2023-01-20T08:00:35.429Z,0.40
2023-01-20T08:02:11.259Z,0.40
2023-01-20T08:03:44.413Z,0.40
2023-01-20T08:05:17.408Z,0.40
2023-01-20T08:06:50.088Z,0.40
2023-01-20T08:08:23.711Z,0.40
2023-01-20T08:09:56.440Z,0.40
2023-01-20T08:11:29.808Z,0.50
2023-01-20T08:13:02.482Z,0.50
2023-01-20T08:14:37.722Z,0.50
2023-01-20T08:16:12.594Z,0.50
2023-01-20T08:17:46.735Z,0.50
2023-01-20T08:19:19.440Z,0.50
2023-01-20T08:20:52.167Z,0.50
2023-01-20T08:22:25.965Z,0.50
2023-01-20T08:24:01.307Z,0.50
2023-01-20T08:25:34.011Z,0.50
2023-01-20T08:27:06.694Z,0.50
2023-01-20T08:28:39.412Z,0.50
2023-01-20T08:30:13.091Z,0.60
2023-01-20T08:31:46.013Z,0.50
2023-01-20T08:33:20.942Z,0.50
2023-01-20T08:34:54.857Z,0.50
2023-01-20T08:36:29.481Z,0.50
2023-01-20T08:38:03.153Z,0.50
2023-01-20T08:39:35.823Z,0.60
2023-01-20T08:41:09.640Z,0.60
2023-01-20T08:42:42.365Z,0.60
2023-01-20T08:44:16.669Z,0.70
2023-01-20T08:45:58.605Z,0.70
2023-01-20T08:47:31.395Z,0.80
2023-01-20T08:49:08.248Z,0.80
2023-01-20T08:50:40.929Z,0.90
2023-01-20T08:52:13.618Z,0.90
2023-01-20T08:53:46.364Z,0.90
2023-01-20T08:55:19.277Z,1.00
2023-01-20T08:56:52.393Z,1.00
2023-01-20T08:58:25.667Z,1.10
2023-01-20T08:59:58.390Z,1.10
2023-01-20T09:01:33.524Z,1.10
2023-01-20T09:03:06.269Z,1.20
2023-01-20T09:04:40.622Z,1.20
2023-01-20T09:06:14.257Z,1.30
2023-01-20T09:07:46.989Z,1.30
2023-01-20T09:09:21.425Z,1.30
2023-01-20T09:10:57.409Z,1.30
2023-01-20T09:12:30.159Z,1.40
2023-01-20T09:14:02.981Z,1.40
2023-01-20T09:15:35.730Z,1.40
2023-01-20T09:17:08.495Z,1.40
2023-01-20T09:18:41.656Z,1.40
2023-01-20T09:20:15.973Z,1.50
2023-01-20T09:21:48.729Z,1.50
2023-01-20T09:23:21.399Z,1.60
2023-01-20T09:24:54.654Z,1.60
2023-01-20T09:26:35.746Z,1.60
2023-01-20T09:28:08.873Z,1.70
2023-01-20T09:29:41.545Z,1.70
2023-01-20T09:31:14.385Z,1.70
2023-01-20T09:32:47.132Z,1.80
2023-01-20T09:34:23.137Z,1.80
2023-01-20T09:35:58.493Z,1.80
2023-01-20T09:37:48.938Z,1.90
2023-01-20T09:39:39.758Z,1.90
2023-01-20T09:41:36.374Z,2.00
2023-01-20T09:43:39.767Z,2.00
2023-01-20T09:45:25.021Z,2.10
2023-01-20T09:47:21.648Z,2.20
2023-01-20T09:49:21.225Z,2.20
2023-01-20T09:51:21.307Z,2.20
2023-01-20T09:53:03.492Z,2.20
2023-01-20T09:54:42.190Z,2.30
2023-01-20T09:56:17.884Z,2.30
2023-01-20T09:57:59.129Z,2.30
2023-01-20T09:59:38.740Z,2.30
2023-01-20T10:01:18.448Z,2.40
2023-01-20T10:02:55.645Z,2.40
2023-01-20T10:04:33.871Z,2.40
2023-01-20T10:06:13.555Z,2.40
2023-01-20T10:07:55.525Z,2.40
2023-01-20T10:09:34.588Z,2.40
2023-01-20T10:11:10.407Z,2.50
2023-01-20T10:12:47.795Z,2.50
2023-01-20T10:14:26.371Z,2.50
2023-01-20T10:16:03.085Z,2.60
2023-01-20T10:17:40.934Z,2.60
2023-01-20T10:19:22.151Z,2.70
2023-01-20T10:21:00.510Z,2.70
2023-01-20T10:22:41.955Z,2.70
2023-01-20T10:24:19.392Z,2.70
2023-01-20T10:25:56.875Z,2.70
2023-01-20T10:27:33.048Z,2.80
2023-01-20T10:29:10.771Z,2.80
2023-01-20T10:30:46.298Z,2.90
2023-01-20T10:32:29.476Z,3.10
2023-01-20T10:34:12.009Z,3.30
2023-01-20T10:35:48.500Z,3.50
2023-01-20T10:37:22.674Z,3.80
2023-01-20T10:38:59.921Z,4.00
2023-01-20T10:40:38.251Z,4.20
2023-01-20T10:42:14.272Z,4.30
2023-01-20T10:43:47.387Z,4.40
2023-01-20T10:45:25.266Z,4.60
2023-01-20T10:47:14.723Z,4.70
2023-01-20T10:49:21.014Z,4.80
2023-01-20T10:50:58.664Z,4.90
2023-01-20T10:52:47.330Z,4.90
2023-01-20T10:54:30.186Z,5.00
2023-01-20T10:56:19.734Z,5.10
2023-01-20T10:57:56.971Z,5.30
2023-01-20T10:59:32.980Z,5.40
2023-01-20T11:01:08.863Z,5.60
2023-01-20T11:02:42.999Z,5.70
2023-01-20T11:04:19.278Z,5.90
2023-01-20T11:05:53.198Z,6.10
2023-01-20T11:07:26.740Z,6.20
2023-01-20T11:09:18.502Z,6.30
2023-01-20T11:10:55.752Z,6.50
2023-01-20T11:12:32.505Z,6.60
2023-01-20T11:14:05.405Z,6.60
2023-01-20T11:15:41.916Z,6.50
2023-01-20T11:17:16.825Z,6.30
2023-01-20T11:18:57.643Z,6.10
2023-01-20T11:20:30.454Z,6.00
2023-01-20T11:22:11.781Z,6.00
2023-01-20T11:23:52.073Z,5.90
2023-01-20T11:25:27.701Z,5.90
2023-01-20T11:27:06.898Z,5.90
2023-01-20T11:28:52.191Z,6.00
2023-01-20T11:30:28.584Z,5.90
2023-01-20T11:32:01.410Z,6.00
2023-01-20T11:33:34.244Z,6.00
2023-01-20T11:35:21.778Z,6.00
2023-01-20T11:37:16.518Z,6.10
2023-01-20T11:38:50.919Z,6.20
2023-01-20T11:40:25.899Z,6.40
2023-01-20T11:42:16.002Z,6.40
2023-01-20T11:43:49.782Z,6.50
2023-01-20T11:45:32.473Z,6.50
2023-01-20T11:47:22.420Z,6.60
2023-01-20T11:49:23.895Z,6.60
2023-01-20T11:51:01.749Z,6.60
2023-01-20T11:52:36.118Z,6.60
2023-01-20T11:54:12.357Z,6.60
2023-01-20T11:55:51.856Z,6.50
2023-01-20T11:57:25.917Z,6.50
2023-01-20T11:59:01.810Z,6.60
2023-01-20T12:00:40.359Z,6.60
2023-01-20T12:02:24.864Z,6.60
2023-01-20T12:04:20.832Z,6.60
2023-01-20T12:06:00.775Z,6.60
2023-01-20T12:07:36.084Z,6.60
2023-01-20T12:09:14.427Z,6.60
2023-01-20T12:10:48.748Z,6.60
2023-01-20T12:12:32.265Z,6.60
2023-01-20T12:14:22.989Z,6.60
2023-01-20T12:16:01.203Z,6.60
2023-01-20T12:17:42.067Z,6.60
2023-01-20T12:19:20.008Z,6.60
2023-01-20T12:21:00.011Z,6.60
2023-01-20T12:22:41.203Z,6.50
2023-01-20T12:24:19.690Z,6.60
2023-01-20T12:25:57.262Z,6.50
2023-01-20T12:27:31.767Z,6.50
2023-01-20T12:29:14.293Z,6.60
2023-01-20T12:30:59.746Z,6.50
2023-01-20T12:32:33.228Z,6.50
2023-01-20T12:34:11.941Z,6.50
2023-01-20T12:35:57.752Z,6.50
2023-01-20T12:37:37.977Z,6.40
2023-01-20T12:39:33.572Z,6.30
2023-01-20T12:41:13.827Z,6.20
2023-01-20T12:43:20.020Z,6.10
2023-01-20T12:44:58.121Z,6.00
2023-01-20T12:46:38.985Z,5.90
2023-01-20T12:48:26.659Z,5.80
2023-01-20T12:50:17.613Z,5.70
2023-01-20T12:52:05.857Z,5.70
2023-01-20T12:53:52.577Z,5.60
2023-01-20T12:55:33.340Z,5.60
2023-01-20T12:57:16.166Z,5.50
2023-01-20T12:58:57.920Z,5.50
2023-01-20T13:00:47.331Z,5.40
2023-01-20T13:02:43.895Z,5.40
2023-01-20T13:04:49.531Z,5.30
2023-01-20T13:06:50.118Z,5.30
2023-01-20T13:08:36.291Z,5.20
2023-01-20T13:10:23.742Z,5.20
2023-01-20T13:12:07.230Z,5.20
2023-01-20T13:13:57.218Z,5.10
2023-01-20T13:15:36.388Z,5.00
2023-01-20T13:17:18.744Z,5.00
2023-01-20T13:19:03.834Z,4.90
2023-01-20T13:20:40.477Z,4.90
2023-01-20T13:22:16.002Z,4.90
2023-01-20T13:23:50.263Z,4.90
2023-01-20T13:25:23.772Z,4.80
2023-01-20T13:26:57.861Z,4.80
2023-01-20T13:28:31.498Z,4.80
2023-01-20T13:30:06.723Z,4.70
2023-01-20T13:31:46.700Z,4.70
2023-01-20T13:33:31.440Z,4.70
2023-01-20T13:35:44.799Z,4.70
2023-01-20T13:37:33.022Z,4.70
2023-01-20T13:39:40.335Z,4.70
2023-01-20T13:41:13.565Z,4.70
2023-01-20T13:42:51.276Z,4.60
2023-01-20T13:44:35.272Z,4.70
2023-01-20T13:46:47.624Z,4.70
2023-01-20T13:48:24.208Z,4.60
2023-01-20T13:49:56.960Z,4.60
2023-01-20T13:51:44.877Z,4.50
2023-01-20T13:53:29.210Z,4.50
2023-01-20T13:55:01.928Z,4.50
2023-01-20T13:56:34.645Z,4.50
2023-01-20T13:58:13.687Z,4.50
2023-01-20T13:59:46.365Z,4.50
2023-01-20T14:01:19.145Z,4.50
2023-01-20T14:02:53.564Z,4.40
2023-01-20T14:04:26.297Z,4.40
2023-01-20T14:06:01.284Z,4.50
2023-01-20T14:07:34.031Z,4.40
2023-01-20T14:09:18.592Z,4.40
2023-01-20T14:10:51.925Z,4.40
2023-01-20T14:12:24.754Z,4.40
2023-01-20T14:13:59.798Z,4.40
2023-01-20T14:15:37.727Z,4.40
2023-01-20T14:17:16.068Z,4.40
2023-01-20T14:18:50.776Z,4.40
2023-01-20T14:20:26.239Z,4.30
2023-01-20T14:22:02.660Z,4.30
2023-01-20T14:23:39.513Z,4.30
2023-01-20T14:25:23.115Z,4.30
2023-01-20T14:27:07.171Z,4.30
2023-01-20T14:28:47.314Z,4.30
2023-01-20T14:30:23.718Z,4.30
2023-01-20T14:31:56.831Z,4.30
2023-01-20T14:33:29.941Z,4.20
2023-01-20T14:35:14.573Z,4.30
2023-01-20T14:36:47.645Z,4.20
2023-01-20T14:38:20.350Z,4.20
2023-01-20T14:39:54.918Z,4.20
2023-01-20T14:41:31.404Z,4.20
2023-01-20T14:43:06.668Z,4.20
2023-01-20T14:44:39.930Z,4.20
2023-01-20T14:46:12.760Z,4.20
2023-01-20T14:47:45.716Z,4.20
2023-01-20T14:49:20.219Z,4.20
2023-01-20T14:50:55.898Z,4.20
2023-01-20T14:52:31.891Z,4.20
2023-01-20T14:54:37.244Z,4.20
2023-01-20T14:56:20.337Z,4.20
2023-01-20T14:57:53.059Z,4.20
2023-01-20T14:59:26.782Z,4.10
2023-01-20T15:01:02.522Z,4.10
2023-01-20T15:02:36.789Z,4.20
2023-01-20T15:04:12.571Z,4.10
2023-01-20T15:05:58.105Z,4.10
2023-01-20T15:07:30.889Z,4.10
2023-01-20T15:09:07.657Z,4.10
2023-01-20T15:10:40.632Z,4.10
2023-01-20T15:12:35.285Z,4.10
2023-01-20T15:14:10.038Z,4.00
2023-01-20T15:15:43.409Z,4.00
2023-01-20T15:17:17.591Z,4.00
2023-01-20T15:19:23.554Z,4.00
2023-01-20T15:21:15.588Z,4.10
2023-01-20T15:22:50.678Z,4.00
2023-01-20T15:24:24.914Z,4.00
2023-01-20T15:25:58.004Z,4.00
2023-01-20T15:27:33.400Z,4.00
2023-01-20T15:29:21.616Z,4.00
2023-01-20T15:30:55.647Z,4.00
2023-01-20T15:32:28.463Z,3.90
2023-01-20T15:34:01.148Z,3.90
2023-01-20T15:35:34.321Z,3.80
2023-01-20T15:37:18.424Z,3.80
2023-01-20T15:38:51.466Z,3.80
2023-01-20T15:40:26.710Z,3.80
2023-01-20T15:42:01.362Z,3.80
2023-01-20T15:43:34.043Z,3.80
2023-01-20T15:45:07.626Z,3.80
2023-01-20T15:46:41.281Z,3.80
2023-01-20T15:48:16.568Z,3.80
2023-01-20T15:49:49.272Z,3.80
2023-01-20T15:51:22.098Z,3.80
2023-01-20T15:52:56.137Z,3.70
2023-01-20T15:54:28.820Z,3.70
2023-01-20T15:56:02.143Z,3.70
2023-01-20T15:57:34.844Z,3.70
2023-01-20T15:59:12.528Z,3.70
2023-01-20T16:00:45.211Z,3.70
2023-01-20T16:02:19.323Z,3.70
2023-01-20T16:03:52.818Z,3.60
2023-01-20T16:05:26.105Z,3.60
2023-01-20T16:06:58.839Z,3.50
2023-01-20T16:08:38.192Z,3.50
2023-01-20T16:10:16.002Z,3.50
2023-01-20T16:11:48.939Z,3.60
2023-01-20T16:13:21.672Z,3.50
2023-01-20T16:14:54.358Z,3.50
2023-01-20T16:16:30.390Z,3.40
2023-01-20T16:18:03.175Z,3.40
2023-01-20T16:19:36.421Z,3.40
2023-01-20T16:21:10.942Z,3.30
2023-01-20T16:22:43.673Z,3.30
2023-01-20T16:24:17.703Z,3.20
2023-01-20T16:25:50.413Z,3.20
2023-01-20T16:27:24.004Z,3.20
2023-01-20T16:28:58.319Z,3.20
2023-01-20T16:30:31.049Z,3.10
2023-01-20T16:32:03.803Z,3.10
2023-01-20T16:33:36.511Z,3.10
2023-01-20T16:35:09.769Z,3.10
2023-01-20T16:36:42.476Z,3.10
2023-01-20T16:38:16.825Z,3.10
2023-01-20T16:39:50.846Z,3.00
2023-01-20T16:41:25.356Z,3.00
2023-01-20T16:42:58.053Z,3.00
2023-01-20T16:44:30.757Z,3.00
2023-01-20T16:46:03.507Z,3.00
2023-01-20T16:47:36.186Z,3.00
2023-01-20T16:49:08.932Z,3.00
2023-01-20T16:50:41.624Z,3.00
2023-01-20T16:52:14.444Z,3.00
2023-01-20T16:53:47.437Z,3.00
2023-01-20T16:55:21.964Z,3.00
2023-01-20T16:56:54.688Z,3.00
2023-01-20T16:58:27.398Z,3.00
2023-01-20T17:00:00.217Z,3.00
2023-01-20T17:01:33.095Z,2.90
2023-01-20T17:03:06.400Z,2.90
2023-01-20T17:04:39.079Z,3.00
2023-01-20T17:06:12.765Z,3.00
2023-01-20T17:07:45.449Z,2.90
2023-01-20T17:09:18.147Z,3.00
2023-01-20T17:10:52.149Z,3.00
2023-01-20T17:12:24.837Z,3.00
2023-01-20T17:13:58.348Z,3.00
2023-01-20T17:15:31.065Z,3.00
2023-01-20T17:17:03.776Z,2.90
2023-01-20T17:18:36.518Z,2.90
2023-01-20T17:20:10.849Z,2.90
2023-01-20T17:21:44.027Z,2.90
2023-01-20T17:23:16.718Z,2.90
2023-01-20T17:24:49.441Z,2.90
2023-01-20T17:26:24.278Z,2.80
2023-01-20T17:27:57.007Z,2.80
2023-01-20T17:29:29.700Z,2.80
2023-01-20T17:31:03.005Z,2.70
2023-01-20T17:32:36.043Z,2.60
2023-01-20T17:34:10.153Z,2.50
2023-01-20T17:35:43.237Z,2.50
2023-01-20T17:37:15.974Z,2.40
2023-01-20T17:38:48.726Z,2.30
2023-01-20T17:40:21.521Z,2.30
2023-01-20T17:41:55.563Z,2.20
2023-01-20T17:43:32.545Z,2.10
2023-01-20T17:45:05.903Z,2.10
2023-01-20T17:46:38.586Z,2.10
2023-01-20T17:48:11.279Z,2.10
2023-01-20T17:49:43.963Z,2.10
2023-01-20T17:51:18.799Z,2.00
2023-01-20T17:52:52.169Z,2.00
2023-01-20T17:54:24.921Z,1.90
2023-01-20T17:56:11.888Z,1.90
2023-01-20T17:57:47.049Z,1.90
2023-01-20T17:59:19.746Z,1.80
2023-01-20T18:00:52.481Z,1.80
2023-01-20T18:02:25.590Z,1.70
2023-01-20T18:03:59.590Z,1.70
2023-01-20T18:05:32.646Z,1.70
2023-01-20T18:07:05.368Z,1.70
2023-01-20T18:08:39.083Z,1.60
2023-01-20T18:10:12.568Z,1.60
2023-01-20T18:11:46.097Z,1.60
2023-01-20T18:13:20.132Z,1.60
2023-01-20T18:14:54.352Z,1.60
2023-01-20T18:16:30.029Z,1.60
2023-01-20T18:18:02.792Z,1.50
2023-01-20T18:19:35.563Z,1.50
2023-01-20T18:21:09.954Z,1.50
2023-01-20T18:22:48.119Z,1.50
2023-01-20T18:24:20.809Z,1.50
2023-01-20T18:25:56.228Z,1.50
2023-01-20T18:27:29.169Z,1.60
2023-01-20T18:29:05.325Z,1.60
2023-01-20T18:30:38.113Z,1.50
2023-01-20T18:32:11.092Z,1.50
2023-01-20T18:33:45.687Z,1.50
2023-01-20T18:35:18.470Z,1.50
2023-01-20T18:36:51.200Z,1.40
2023-01-20T18:38:24.907Z,1.40
2023-01-20T18:39:57.831Z,1.40
2023-01-20T18:41:32.405Z,1.40
2023-01-20T18:43:05.075Z,1.40
2023-01-20T18:44:39.101Z,1.40
2023-01-20T18:46:12.126Z,1.40
2023-01-20T18:47:44.898Z,1.40
2023-01-20T18:49:18.324Z,1.30
2023-01-20T18:50:51.052Z,1.30
2023-01-20T18:52:23.746Z,1.30
2023-01-20T18:53:57.878Z,1.30
2023-01-20T18:55:31.556Z,1.20
2023-01-20T18:57:04.614Z,1.20
2023-01-20T18:58:41.232Z,1.20
2023-01-20T19:00:16.222Z,1.20
2023-01-20T19:01:49.518Z,1.20
2023-01-20T19:03:24.486Z,1.20
2023-01-20T19:04:57.289Z,1.20
2023-01-20T19:06:34.153Z,1.20
2023-01-20T19:08:06.832Z,1.20
2023-01-20T19:09:39.526Z,1.20
2023-01-20T19:11:14.455Z,1.20
2023-01-20T19:12:47.140Z,1.10
2023-01-20T19:14:19.830Z,1.20
2023-01-20T19:15:54.008Z,1.20
2023-01-20T19:17:28.454Z,1.10
2023-01-20T19:19:02.888Z,1.10
2023-01-20T19:20:36.373Z,1.10
2023-01-20T19:22:09.079Z,1.10
2023-01-20T19:23:42.565Z,1.10
2023-01-20T19:25:15.369Z,1.10
2023-01-20T19:26:48.166Z,1.10
2023-01-20T19:28:20.881Z,1.10
2023-01-20T19:29:53.696Z,1.10
2023-01-20T19:31:27.824Z,1.10
2023-01-20T19:33:00.563Z,1.10
2023-01-20T19:34:33.268Z,1.10
2023-01-20T19:36:08.609Z,1.10
2023-01-20T19:37:43.500Z,1.00
2023-01-20T19:39:16.404Z,1.00
2023-01-20T19:40:49.064Z,1.10
2023-01-20T19:42:21.737Z,1.00
2023-01-20T19:43:57.083Z,1.00
2023-01-20T19:45:44.875Z,1.10
2023-01-20T19:47:19.263Z,1.10
2023-01-20T19:48:52.085Z,1.10
2023-01-20T19:50:24.780Z,1.10
2023-01-20T19:51:57.534Z,1.10
2023-01-20T19:53:30.501Z,1.20
2023-01-20T19:55:03.213Z,1.10
2023-01-20T19:56:36.632Z,1.10
2023-01-20T19:58:09.316Z,1.10
2023-01-20T19:59:42.024Z,1.10
2023-01-20T20:01:17.043Z,1.10
2023-01-20T20:02:54.193Z,1.10
2023-01-20T20:04:26.956Z,1.10
2023-01-20T20:05:59.670Z,1.10
2023-01-20T20:07:34.848Z,1.20
2023-01-20T20:09:10.915Z,1.20
2023-01-20T20:10:44.021Z,1.20
2023-01-20T20:12:16.737Z,1.20
2023-01-20T20:13:49.430Z,1.20
2023-01-20T20:15:22.136Z,1.20
2023-01-20T20:16:54.818Z,1.10
2023-01-20T20:18:28.907Z,1.10
2023-01-20T20:20:01.659Z,1.10
2023-01-20T20:21:35.088Z,1.10
2023-01-20T20:23:07.748Z,1.10
2023-01-20T20:24:40.530Z,1.00
2023-01-20T20:26:13.761Z,1.20
2023-01-20T20:27:46.615Z,1.10
2023-01-20T20:29:20.178Z,1.20
2023-01-20T20:30:57.547Z,1.20
2023-01-20T20:32:30.289Z,1.20
2023-01-20T20:34:05.906Z,1.10
2023-01-20T20:35:38.768Z,1.10
2023-01-20T20:37:11.464Z,1.10
2023-01-20T20:38:51.276Z,1.10
2023-01-20T20:40:25.167Z,1.10
2023-01-20T20:41:57.917Z,1.00
2023-01-20T20:43:30.718Z,1.10
2023-01-20T20:45:03.405Z,1.10
2023-01-20T20:46:36.151Z,1.20
2023-01-20T20:48:09.823Z,1.10
2023-01-20T20:49:43.851Z,1.10
2023-01-20T20:51:17.565Z,1.10
2023-01-20T20:52:50.609Z,1.10
2023-01-20T20:54:23.277Z,1.00
2023-01-20T20:55:59.128Z,1.00
2023-01-20T20:57:33.582Z,1.00
2023-01-20T20:59:06.408Z,1.00
2023-01-20T21:00:39.128Z,1.00
2023-01-20T21:02:14.875Z,1.00
2023-01-20T21:03:48.057Z,1.00
2023-01-20T21:05:22.109Z,1.00
2023-01-20T21:06:54.824Z,1.00
2023-01-20T21:08:27.669Z,1.00